createdAt,value
2019-06-01T00:00:10.368Z,99.90
2019-06-01T00:02:28.242Z,99.90
2019-06-01T00:04:58.490Z,99.90
2019-06-01T00:07:28.727Z,99.90
2019-06-01T00:09:59.216Z,99.90
2019-06-01T00:12:29.154Z,99.90
2019-06-01T00:14:59.068Z,99.90
2019-06-01T00:17:28.961Z,99.90
2019-06-01T00:19:59.250Z,99.90
2019-06-01T00:22:29.895Z,99.90
2019-06-01T00:24:59.763Z,99.90
2019-06-01T00:27:29.449Z,99.90
2019-06-01T00:29:59.860Z,99.90
2019-06-01T00:32:29.483Z,99.90
2019-06-01T00:34:59.705Z,99.90
2019-06-01T00:37:29.623Z,99.90
2019-06-01T00:39:59.596Z,99.90
2019-06-01T00:42:30.156Z,99.90
2019-06-01T00:45:00.423Z,99.90
2019-06-01T00:47:30.099Z,99.90
2019-06-01T00:50:00.296Z,99.90
2019-06-01T00:52:30.237Z,99.90
2019-06-01T00:55:00.926Z,99.90
2019-06-01T00:57:31.563Z,99.90
2019-06-01T01:00:01.831Z,99.90
2019-06-01T01:02:31.459Z,99.90
2019-06-01T01:05:06.872Z,99.90
2019-06-01T01:07:38.250Z,99.90
2019-06-01T01:10:09.007Z,99.90
2019-06-01T01:12:56.373Z,99.90
2019-06-01T01:15:26.585Z,99.90
2019-06-01T01:17:56.406Z,99.90
2019-06-01T01:20:26.362Z,99.90
2019-06-01T01:22:56.450Z,99.90
2019-06-01T01:25:26.469Z,99.90
2019-06-01T01:27:57.037Z,99.90
2019-06-01T01:30:26.748Z,99.90
2019-06-01T01:32:59.041Z,99.90
2019-06-01T01:35:28.319Z,99.90
2019-06-01T01:37:59.048Z,99.90
2019-06-01T01:40:29.468Z,99.90
2019-06-01T01:42:59.414Z,99.90
2019-06-01T01:45:29.602Z,99.90
2019-06-01T01:47:59.576Z,99.90
2019-06-01T01:50:29.976Z,99.90
2019-06-01T01:52:59.974Z,99.90
2019-06-01T01:55:30.673Z,99.90
2019-06-01T01:58:01.618Z,99.90
2019-06-01T02:00:38.188Z,99.90
2019-06-01T02:03:10.360Z,99.90
2019-06-01T02:05:40.587Z,99.90
2019-06-01T02:08:10.754Z,99.90
2019-06-01T02:10:40.962Z,99.90
2019-06-01T02:13:10.963Z,99.90
2019-06-01T02:15:43.644Z,99.90
2019-06-01T02:18:13.841Z,99.90
2019-06-01T02:20:44.163Z,99.90
2019-06-01T02:23:13.814Z,99.90
2019-06-01T02:25:44.061Z,99.90
2019-06-01T02:28:14.052Z,99.90
2019-06-01T02:30:43.399Z,99.90
2019-06-01T02:33:13.351Z,99.90
2019-06-01T02:35:43.686Z,99.90
2019-06-01T02:38:13.999Z,99.90
2019-06-01T02:40:44.437Z,99.90
2019-06-01T02:43:14.952Z,99.90
2019-06-01T02:45:44.600Z,99.90
2019-06-01T02:48:14.270Z,99.90
2019-06-01T02:50:44.372Z,99.90
2019-06-01T02:53:14.671Z,99.90
2019-06-01T02:55:44.920Z,99.90
2019-06-01T02:58:15.277Z,99.90
2019-06-01T03:01:56.000Z,99.90
2019-06-01T03:04:13.135Z,99.90
2019-06-01T03:06:44.266Z,99.90
2019-06-01T03:09:14.624Z,99.90
2019-06-01T03:11:44.898Z,99.90
2019-06-01T03:14:15.272Z,99.90
2019-06-01T03:16:44.722Z,99.90
2019-06-01T03:19:17.333Z,99.90
2019-06-01T03:21:50.082Z,99.90
2019-06-01T03:24:25.409Z,99.90
2019-06-01T03:26:55.753Z,99.90
2019-06-01T03:29:28.882Z,99.90
2019-06-01T03:32:20.953Z,99.90
2019-06-01T03:34:31.095Z,99.90
2019-06-01T03:37:02.776Z,99.90
2019-06-01T03:39:33.376Z,99.90
2019-06-01T03:42:03.334Z,99.90
2019-06-01T03:44:33.845Z,99.90
2019-06-01T03:47:05.576Z,99.90
2019-06-01T03:49:35.852Z,99.90
2019-06-01T03:52:06.933Z,99.90
2019-06-01T03:54:37.230Z,99.90
2019-06-01T03:57:07.468Z,99.90
2019-06-01T03:59:37.508Z,99.90
2019-06-01T04:02:07.437Z,99.90
2019-06-01T04:04:37.907Z,99.90
2019-06-01T04:07:08.342Z,99.90
2019-06-01T04:09:38.668Z,99.90
2019-06-01T04:12:09.678Z,99.90
2019-06-01T04:14:39.519Z,99.90
2019-06-01T04:17:10.196Z,99.90
2019-06-01T04:19:43.500Z,99.90
2019-06-01T04:22:14.958Z,99.90
2019-06-01T04:24:45.426Z,99.90
2019-06-01T04:27:18.046Z,99.90
2019-06-01T04:29:48.684Z,99.90
2019-06-01T04:32:19.089Z,99.90
2019-06-01T04:34:49.397Z,99.90
2019-06-01T04:37:19.072Z,99.90
2019-06-01T04:39:49.761Z,99.90
2019-06-01T04:42:19.867Z,99.90
2019-06-01T04:44:49.874Z,99.90
2019-06-01T04:47:20.194Z,99.90
2019-06-01T04:49:50.160Z,99.90
2019-06-01T04:52:20.614Z,99.90
2019-06-01T04:54:50.975Z,99.90
2019-06-01T04:57:21.101Z,98.90
2019-06-01T04:59:51.366Z,97.80
2019-06-01T05:02:21.463Z,98.80
2019-06-01T05:04:52.140Z,99.10
2019-06-01T05:07:22.181Z,98.70
2019-06-01T05:09:52.157Z,98.00
2019-06-01T05:12:22.710Z,97.10
2019-06-01T05:14:52.634Z,96.70
2019-06-01T05:17:22.955Z,95.90
2019-06-01T05:19:53.373Z,95.80
2019-06-01T05:22:23.146Z,95.50
2019-06-01T05:24:53.550Z,95.30
2019-06-01T05:27:24.333Z,94.60
2019-06-01T05:29:54.260Z,94.40
2019-06-01T05:32:24.503Z,94.50
2019-06-01T05:34:54.904Z,94.40
2019-06-01T05:37:25.581Z,93.60
2019-06-01T05:39:55.785Z,92.60
2019-06-01T05:42:25.556Z,92.20
2019-06-01T05:44:55.837Z,91.70
2019-06-01T05:47:29.342Z,91.40
2019-06-01T05:49:59.322Z,90.90
2019-06-01T05:52:29.856Z,91.00
2019-06-01T05:55:00.255Z,91.90
2019-06-01T05:57:30.948Z,92.70
2019-06-01T06:00:02.552Z,92.70
2019-06-01T06:02:32.936Z,92.90
2019-06-01T06:05:03.285Z,93.20
2019-06-01T06:07:32.642Z,93.50
2019-06-01T06:10:03.306Z,93.40
2019-06-01T06:12:33.551Z,93.10
2019-06-01T06:15:03.850Z,92.10
2019-06-01T06:17:34.188Z,91.60
2019-06-01T06:20:04.311Z,91.10
2019-06-01T06:22:34.331Z,90.50
2019-06-01T06:25:04.377Z,89.80
2019-06-01T06:27:34.985Z,86.70
2019-06-01T06:30:05.697Z,85.50
2019-06-01T06:32:35.746Z,85.70
2019-06-01T06:35:06.403Z,85.30
2019-06-01T06:37:36.659Z,84.60
2019-06-01T06:40:07.268Z,84.20
2019-06-01T06:42:37.926Z,83.40
2019-06-01T06:45:08.579Z,82.50
2019-06-01T06:47:39.196Z,83.30
2019-06-01T06:50:11.032Z,83.60
2019-06-01T06:52:40.987Z,83.20
2019-06-01T06:55:11.402Z,83.60
2019-06-01T06:57:41.751Z,82.50
2019-06-01T07:00:12.202Z,82.40
2019-06-01T07:02:42.429Z,81.10
2019-06-01T07:05:12.912Z,81.30
2019-06-01T07:07:42.816Z,81.90
2019-06-01T07:10:12.816Z,83.70
2019-06-01T07:12:43.087Z,83.00
2019-06-01T07:15:12.532Z,81.60
2019-06-01T07:17:42.939Z,79.10
2019-06-01T07:20:12.994Z,76.50
2019-06-01T07:22:43.621Z,79.80
2019-06-01T07:25:13.689Z,80.40
2019-06-01T07:27:43.985Z,81.40
2019-06-01T07:30:14.758Z,81.80
2019-06-01T07:32:44.380Z,80.20
2019-06-01T07:35:15.145Z,78.20
2019-06-01T07:37:45.424Z,78.10
2019-06-01T07:40:15.478Z,79.30
2019-06-01T07:42:46.054Z,78.30
2019-06-01T07:45:16.547Z,77.70
2019-06-01T07:47:46.418Z,77.00
2019-06-01T07:50:15.967Z,76.90
2019-06-01T07:52:45.915Z,78.60
2019-06-01T07:55:16.344Z,77.20
2019-06-01T07:57:46.034Z,76.50
2019-06-01T08:00:16.034Z,76.00
2019-06-01T08:02:46.714Z,76.70
2019-06-01T08:05:16.365Z,78.60
2019-06-01T08:07:46.043Z,78.50
2019-06-01T08:10:15.729Z,77.10
2019-06-01T08:12:45.814Z,76.90
2019-06-01T08:15:16.328Z,76.40
2019-06-01T08:17:46.752Z,77.30
2019-06-01T08:20:16.703Z,77.50
2019-06-01T08:22:46.886Z,77.00
2019-06-01T08:25:17.083Z,75.60
2019-06-01T08:27:47.448Z,76.00
2019-06-01T08:30:17.263Z,75.80
2019-06-01T08:32:47.212Z,75.80
2019-06-01T08:35:17.172Z,75.50
2019-06-01T08:37:46.490Z,74.50
2019-06-01T08:40:17.324Z,73.70
2019-06-01T08:42:47.532Z,74.50
2019-06-01T08:45:17.837Z,75.70
2019-06-01T08:47:47.314Z,76.90
2019-06-01T08:50:17.355Z,78.20
2019-06-01T08:52:48.035Z,82.30
2019-06-01T08:55:18.228Z,83.30
2019-06-01T08:57:48.851Z,86.90
2019-06-01T09:00:19.211Z,85.40
2019-06-01T09:02:49.035Z,86.20
2019-06-01T09:05:24.310Z,86.30
2019-06-01T09:07:50.784Z,88.90
2019-06-01T09:10:20.787Z,90.80
2019-06-01T09:12:50.905Z,85.90
2019-06-01T09:15:21.261Z,87.30
2019-06-01T09:17:51.281Z,90.20
2019-06-01T09:20:21.080Z,91.20
2019-06-01T09:22:51.853Z,88.00
2019-06-01T09:25:21.962Z,89.90
2019-06-01T09:27:52.372Z,89.60
2019-06-01T09:30:23.152Z,89.60
2019-06-01T09:32:53.613Z,90.40
2019-06-01T09:35:40.784Z,90.30
2019-06-01T09:37:54.973Z,90.20
2019-06-01T09:40:27.313Z,90.10
2019-06-01T09:42:57.364Z,89.50
2019-06-01T09:45:27.898Z,90.10
2019-06-01T09:47:58.430Z,88.90
2019-06-01T09:50:29.155Z,90.20
2019-06-01T09:52:59.567Z,90.60
2019-06-01T09:55:30.858Z,90.50
2019-06-01T09:58:00.580Z,89.70
2019-06-01T10:00:32.274Z,87.30
2019-06-01T10:03:02.689Z,86.70
2019-06-01T10:05:36.514Z,87.70
2019-06-01T10:09:45.212Z,87.80
2019-06-01T10:10:42.393Z,86.50
2019-06-01T10:13:12.448Z,86.10
2019-06-01T10:15:42.966Z,87.40
2019-06-01T10:18:13.523Z,85.90
2019-06-01T10:20:43.724Z,85.70
2019-06-01T10:23:42.753Z,83.90
2019-06-01T10:26:11.947Z,85.10
2019-06-01T10:28:42.338Z,84.60
2019-06-01T10:31:13.357Z,86.20
2019-06-01T10:33:43.489Z,85.00
2019-06-01T10:36:20.320Z,85.20
2019-06-01T10:38:45.499Z,84.60
2019-06-01T10:41:15.607Z,84.30
2019-06-01T10:43:46.589Z,83.80
2019-06-01T10:46:16.709Z,84.80
2019-06-01T10:48:47.399Z,83.00
2019-06-01T10:51:17.958Z,82.80
2019-06-01T10:53:48.798Z,82.30
2019-06-01T10:56:19.556Z,81.40
2019-06-01T10:59:00.051Z,80.40
2019-06-01T11:01:22.187Z,80.30
2019-06-01T11:03:52.322Z,83.10
2019-06-01T11:06:36.279Z,81.90
2019-06-01T11:08:55.220Z,82.50
2019-06-01T11:11:24.958Z,79.70
2019-06-01T11:13:55.700Z,82.20
2019-06-01T11:16:26.300Z,79.40
2019-06-01T11:18:57.160Z,82.30
2019-06-01T11:21:27.217Z,79.70
2019-06-01T11:23:59.607Z,78.50
2019-06-01T11:26:29.428Z,80.00
2019-06-01T11:28:59.599Z,79.70
2019-06-01T11:31:30.312Z,79.40
2019-06-01T11:34:00.091Z,80.90
2019-06-01T11:36:30.124Z,81.10
2019-06-01T11:39:03.640Z,80.80
2019-06-01T11:41:36.375Z,80.40
2019-06-01T11:44:06.043Z,77.80
2019-06-01T11:46:36.726Z,79.30
2019-06-01T11:49:06.536Z,79.70
2019-06-01T11:51:37.394Z,80.50
2019-06-01T11:54:07.552Z,78.70
2019-06-01T11:56:39.178Z,78.90
2019-06-01T11:59:09.475Z,77.70
2019-06-01T12:01:39.950Z,78.60
2019-06-01T12:04:10.316Z,79.30
2019-06-01T12:06:41.670Z,77.00
2019-06-01T12:09:13.876Z,75.80
2019-06-01T12:11:44.639Z,75.20
2019-06-01T12:14:14.290Z,74.60
2019-06-01T12:16:44.800Z,75.30
2019-06-01T12:19:14.937Z,76.70
2019-06-01T12:21:47.248Z,75.70
2019-06-01T12:24:17.678Z,74.90
2019-06-01T12:26:48.236Z,77.60
2019-06-01T12:29:19.163Z,77.20
2019-06-01T12:31:49.938Z,75.10
2019-06-01T12:34:20.439Z,75.80
2019-06-01T12:36:52.120Z,74.90
2019-06-01T12:39:22.680Z,74.50
2019-06-01T12:41:52.940Z,75.40
2019-06-01T12:44:23.465Z,73.30
2019-06-01T12:46:54.375Z,74.70
2019-06-01T12:49:24.759Z,74.10
2019-06-01T12:51:54.756Z,73.40
2019-06-01T12:54:24.749Z,75.20
2019-06-01T12:56:54.531Z,74.90
2019-06-01T12:59:24.561Z,73.20
2019-06-01T13:01:54.623Z,71.50
2019-06-01T13:04:24.913Z,71.90
2019-06-01T13:06:55.031Z,72.20
2019-06-01T13:09:25.143Z,71.60
2019-06-01T13:11:54.806Z,73.40
2019-06-01T13:14:27.844Z,72.60
2019-06-01T13:17:07.080Z,73.20
2019-06-01T13:19:31.935Z,75.10
2019-06-01T13:22:01.628Z,77.60
2019-06-01T13:24:32.278Z,76.10
2019-06-01T13:27:02.070Z,74.70
2019-06-01T13:29:32.387Z,74.30
2019-06-01T13:32:02.139Z,76.00
2019-06-01T13:34:34.263Z,74.00
2019-06-01T13:37:04.461Z,72.40
2019-06-01T13:39:34.741Z,73.20
2019-06-01T13:42:05.216Z,74.10
2019-06-01T13:44:34.969Z,74.00
2019-06-01T13:47:05.331Z,74.80
2019-06-01T13:49:35.996Z,73.40
2019-06-01T13:52:07.118Z,73.20
2019-06-01T13:54:40.114Z,72.70
2019-06-01T13:57:09.598Z,72.30
2019-06-01T13:59:40.893Z,72.10
2019-06-01T14:02:11.331Z,72.30
2019-06-01T14:04:41.007Z,72.50
2019-06-01T14:07:11.564Z,73.50
2019-06-01T14:09:41.702Z,73.00
2019-06-01T14:12:11.392Z,71.40
2019-06-01T14:14:41.313Z,70.80
2019-06-01T14:17:12.044Z,72.10
2019-06-01T14:19:42.501Z,72.30
2019-06-01T14:22:12.179Z,71.20
2019-06-01T14:24:44.521Z,70.60
2019-06-01T14:27:14.311Z,72.60
2019-06-01T14:29:44.375Z,72.90
2019-06-01T14:32:14.581Z,72.10
2019-06-01T14:34:46.325Z,71.90
2019-06-01T14:37:16.336Z,70.60
2019-06-01T14:39:46.847Z,71.90
2019-06-01T14:42:17.083Z,71.50
2019-06-01T14:44:47.157Z,71.80
2019-06-01T14:47:18.706Z,70.50
2019-06-01T14:49:49.445Z,71.70
2019-06-01T14:52:19.643Z,70.70
2019-06-01T14:54:49.989Z,70.50
2019-06-01T14:57:20.301Z,71.30
2019-06-01T14:59:50.492Z,70.30
2019-06-01T15:02:20.871Z,70.00
2019-06-01T15:04:50.617Z,69.80
2019-06-01T15:07:20.619Z,72.20
2019-06-01T15:09:52.289Z,71.10
2019-06-01T15:12:22.851Z,69.90
2019-06-01T15:14:53.021Z,70.30
2019-06-01T15:17:23.502Z,69.80
2019-06-01T15:19:54.187Z,71.70
2019-06-01T15:22:24.363Z,70.80
2019-06-01T15:24:54.672Z,70.90
2019-06-01T15:27:25.116Z,70.20
2019-06-01T15:29:55.072Z,72.50
2019-06-01T15:32:26.847Z,71.30
2019-06-01T15:34:57.017Z,71.90
2019-06-01T15:37:27.870Z,70.90
2019-06-01T15:39:58.720Z,71.00
2019-06-01T15:42:28.779Z,70.60
2019-06-01T15:44:59.401Z,72.90
2019-06-01T15:47:29.396Z,70.30
2019-06-01T15:50:00.102Z,71.70
2019-06-01T15:52:29.902Z,70.40
2019-06-01T15:55:00.548Z,71.70
2019-06-01T15:57:30.724Z,70.20
2019-06-01T16:00:01.063Z,68.70
2019-06-01T16:02:31.423Z,69.30
2019-06-01T16:05:01.643Z,69.80
2019-06-01T16:07:32.052Z,71.00
2019-06-01T16:10:06.410Z,72.00
2019-06-01T16:12:34.729Z,70.00
2019-06-01T16:15:05.532Z,70.30
2019-06-01T16:17:35.183Z,69.50
2019-06-01T16:20:07.160Z,70.60
2019-06-01T16:22:37.326Z,70.70
2019-06-01T16:25:07.819Z,70.60
2019-06-01T16:27:37.858Z,71.20
2019-06-01T16:30:08.523Z,70.10
2019-06-01T16:32:39.800Z,70.30
2019-06-01T16:35:09.744Z,70.30
2019-06-01T16:37:40.259Z,70.30
2019-06-01T16:40:11.152Z,69.70
2019-06-01T16:42:42.124Z,69.00
2019-06-01T16:45:12.985Z,67.50
2019-06-01T16:47:42.918Z,67.90
2019-06-01T16:50:13.978Z,68.50
2019-06-01T16:52:44.446Z,70.00
2019-06-01T16:55:14.763Z,69.70
2019-06-01T16:57:45.192Z,70.00
2019-06-01T17:00:16.959Z,69.90
2019-06-01T17:02:46.917Z,68.00
2019-06-01T17:05:17.587Z,67.80
2019-06-01T17:07:47.689Z,68.40
2019-06-01T17:10:26.221Z,67.60
2019-06-01T17:12:49.986Z,68.80
2019-06-01T17:15:20.602Z,70.50
2019-06-01T17:17:50.902Z,70.50
2019-06-01T17:20:41.867Z,71.30
2019-06-01T17:23:26.262Z,72.00
2019-06-01T17:25:44.383Z,71.60
2019-06-01T17:28:14.551Z,70.90
2019-06-01T17:30:44.925Z,70.00
2019-06-01T17:33:15.444Z,70.30
2019-06-01T17:35:45.538Z,72.50
2019-06-01T17:38:16.176Z,72.90
2019-06-01T17:40:46.030Z,71.50
2019-06-01T17:43:15.921Z,72.30
2019-06-01T17:45:46.358Z,72.00
2019-06-01T17:48:25.746Z,71.30
2019-06-01T17:50:48.624Z,70.30
2019-06-01T17:53:19.658Z,67.50
2019-06-01T17:55:49.758Z,65.70
2019-06-01T17:58:19.174Z,62.60
2019-06-01T18:00:49.393Z,64.80
2019-06-01T18:03:20.193Z,60.90
2019-06-01T18:05:50.790Z,61.90
2019-06-01T18:08:20.973Z,59.00
2019-06-01T18:10:54.614Z,58.10
2019-06-01T18:13:23.468Z,60.50
2019-06-01T18:15:54.001Z,64.80
2019-06-01T18:18:24.368Z,63.40
2019-06-01T18:20:54.651Z,64.60
2019-06-01T18:23:24.697Z,66.80
2019-06-01T18:25:55.467Z,66.00
2019-06-01T18:28:25.996Z,67.30
2019-06-01T18:30:55.935Z,67.60
2019-06-01T18:33:26.312Z,69.50
2019-06-01T18:35:57.211Z,69.80
2019-06-01T18:38:29.204Z,71.30
2019-06-01T18:41:09.503Z,72.00
2019-06-01T18:43:31.946Z,71.90
2019-06-01T18:46:03.613Z,74.70
2019-06-01T18:48:33.822Z,79.00
2019-06-01T18:51:05.942Z,82.30
2019-06-01T18:53:36.330Z,85.00
2019-06-01T18:56:08.049Z,87.30
2019-06-01T18:58:38.253Z,88.80
2019-06-01T19:01:08.424Z,89.30
2019-06-01T19:03:39.360Z,88.30
2019-06-01T19:06:09.882Z,87.90
2019-06-01T19:08:39.626Z,88.80
2019-06-01T19:11:24.712Z,87.60
2019-06-01T19:13:42.224Z,87.90
2019-06-01T19:16:12.656Z,88.50
2019-06-01T19:18:43.287Z,89.60
2019-06-01T19:21:14.806Z,91.00
2019-06-01T19:23:44.939Z,91.60
2019-06-01T19:26:16.408Z,91.30
2019-06-01T19:28:47.124Z,90.30
2019-06-01T19:31:18.264Z,91.20
2019-06-01T19:33:48.921Z,91.10
2019-06-01T19:36:19.233Z,91.60
2019-06-01T19:38:49.942Z,91.30
2019-06-01T19:41:20.002Z,91.50
2019-06-01T19:43:49.819Z,91.80
2019-06-01T19:46:20.315Z,91.30
2019-06-01T19:48:50.764Z,90.60
2019-06-01T19:51:20.874Z,91.80
2019-06-01T19:53:51.402Z,92.00
2019-06-01T19:56:21.869Z,92.50
2019-06-01T19:58:51.762Z,92.50
2019-06-01T20:01:22.675Z,93.20
2019-06-01T20:03:52.628Z,91.60
2019-06-01T20:06:23.432Z,91.70
2019-06-01T20:08:53.552Z,91.70
2019-06-01T20:11:23.803Z,91.90
2019-06-01T20:13:54.007Z,92.20
2019-06-01T20:16:24.421Z,92.30
2019-06-01T20:18:54.955Z,92.80
2019-06-01T20:21:25.404Z,92.80
2019-06-01T20:23:56.148Z,92.60
2019-06-01T20:26:40.386Z,92.90
2019-06-01T20:28:59.161Z,93.20
2019-06-01T20:31:29.248Z,92.70
2019-06-01T20:33:59.981Z,92.20
2019-06-01T20:36:32.130Z,92.50
2019-06-01T20:39:04.461Z,92.20
2019-06-01T20:41:35.208Z,92.40
2019-06-01T20:44:06.348Z,92.40
2019-06-01T20:46:37.243Z,92.30
2019-06-01T20:49:07.306Z,92.50
2019-06-01T20:51:37.456Z,93.10
2019-06-01T20:54:07.980Z,93.00
2019-06-01T20:56:37.838Z,92.70
2019-06-01T20:59:07.895Z,92.30
2019-06-01T21:01:38.025Z,92.40
2019-06-01T21:04:08.109Z,92.90
2019-06-01T21:06:38.410Z,92.90
2019-06-01T21:09:10.095Z,93.00
2019-06-01T21:11:40.681Z,93.90
2019-06-01T21:14:11.300Z,94.30
2019-06-01T21:16:40.991Z,94.00
2019-06-01T21:19:11.188Z,93.60
2019-06-01T21:21:41.257Z,93.60
2019-06-01T21:24:11.653Z,93.70
2019-06-01T21:26:41.679Z,93.60
2019-06-01T21:29:11.827Z,93.30
2019-06-01T21:31:41.517Z,93.30
2019-06-01T21:34:12.135Z,93.20
2019-06-01T21:36:42.745Z,93.40
2019-06-01T21:39:13.295Z,93.10
2019-06-01T21:41:43.250Z,93.20
2019-06-01T21:44:15.403Z,93.30
2019-06-01T21:46:45.710Z,93.50
2019-06-01T21:49:17.560Z,93.40
2019-06-01T21:51:48.713Z,93.60
2019-06-01T21:54:20.120Z,93.70
2019-06-01T21:56:51.225Z,94.20
2019-06-01T21:59:22.686Z,93.70
2019-06-01T22:01:53.016Z,94.00
2019-06-01T22:04:25.339Z,93.90
2019-06-01T22:06:56.178Z,94.50
2019-06-01T22:12:19.226Z,95.00
2019-06-01T22:14:49.621Z,95.60
2019-06-01T22:17:21.489Z,96.30
2019-06-01T22:19:52.507Z,96.50
2019-06-01T22:22:23.799Z,97.10
2019-06-01T22:24:55.462Z,97.60
2019-06-01T22:27:26.362Z,97.90
2019-06-01T22:29:57.737Z,98.50
2019-06-01T22:32:31.218Z,98.90
2019-06-01T22:35:01.747Z,98.50
2019-06-01T22:37:32.868Z,99.40
2019-06-01T22:40:03.272Z,98.90
2019-06-01T22:42:32.935Z,98.50
2019-06-01T22:45:03.431Z,98.70
2019-06-01T22:47:33.857Z,99.00
2019-06-01T22:50:04.969Z,99.50
2019-06-01T22:52:35.110Z,99.30
2019-06-01T22:55:05.725Z,99.90
2019-06-01T22:57:35.768Z,99.90
2019-06-01T23:00:06.895Z,99.90
2019-06-01T23:02:37.311Z,99.90
2019-06-01T23:05:07.957Z,99.90
2019-06-01T23:07:38.755Z,99.90
2019-06-01T23:10:09.786Z,99.90
2019-06-01T23:12:40.155Z,99.90
2019-06-01T23:15:10.679Z,99.90
2019-06-01T23:17:40.295Z,99.90
2019-06-01T23:20:10.581Z,99.90
2019-06-01T23:22:41.058Z,99.80
2019-06-01T23:25:11.056Z,99.00
2019-06-01T23:27:41.375Z,98.80
2019-06-01T23:30:11.607Z,98.80
2019-06-01T23:32:41.286Z,98.80
2019-06-01T23:35:12.004Z,98.90
2019-06-01T23:37:42.760Z,99.00
2019-06-01T23:40:13.491Z,99.40
2019-06-01T23:42:43.223Z,99.00
2019-06-01T23:45:13.585Z,99.50
2019-06-01T23:47:44.076Z,99.90
2019-06-01T23:50:14.918Z,99.90
2019-06-01T23:52:45.033Z,99.90
2019-06-01T23:55:14.439Z,99.90
2019-06-01T23:57:44.698Z,99.90
